Terminal Aerodrome Forecast
Issued by NWS

Home | Current Version | Previous Version | Text Only | Print | Product List | Glossary On
Versions: 1 2 3 4 5 6 7 8 9 10 11 12 13 14
000
FTUS42 TJSJ 311700
TAFJBQ
TAF
TJBQ 311727Z 3118/0118 06008KT P6SM VCSH SCT030 SCT060
     FM312230 11005KT P6SM SCT025
     FM011330 07015KT P6SM SCT030 SCT050
      AMD NOT SKED 0102/0111=

USA.gov is the U.S. government's official web portal to all federal, state and local government web resources and services.